createdAt,value
2022-12-04T00:01:37.124Z,43.00
2022-12-04T00:06:39.061Z,43.67
2022-12-04T00:11:41.048Z,40.60
2022-12-04T00:16:42.852Z,43.07
2022-12-04T00:21:45.278Z,44.83
2022-12-04T00:26:47.275Z,48.63
2022-12-04T00:31:49.124Z,48.93
2022-12-04T00:36:51.152Z,41.27
2022-12-04T00:41:53.039Z,45.40
2022-12-04T00:46:54.856Z,51.47
2022-12-04T00:51:56.573Z,54.57
2022-12-04T00:56:58.493Z,43.60
2022-12-04T01:02:00.461Z,47.30
2022-12-04T01:07:05.194Z,43.30
2022-12-04T01:12:07.763Z,46.70
2022-12-04T01:17:09.487Z,43.57
2022-12-04T01:22:11.327Z,45.97
2022-12-04T01:27:13.369Z,48.63
2022-12-04T01:32:16.278Z,49.27
2022-12-04T01:37:18.240Z,49.90
2022-12-04T01:42:20.217Z,51.20
2022-12-04T01:47:22.123Z,49.53
2022-12-04T01:52:25.700Z,42.93
2022-12-04T01:57:32.148Z,48.40
2022-12-04T02:02:39.076Z,50.30
2022-12-04T02:07:44.799Z,49.13
2022-12-04T02:13:11.711Z,46.57
2022-12-04T02:18:42.848Z,60.70
2022-12-04T02:24:00.088Z,48.80
2022-12-04T02:29:17.027Z,52.63
2022-12-04T02:34:28.229Z,47.70
2022-12-04T02:39:38.881Z,46.80
2022-12-04T02:44:47.345Z,47.73
2022-12-04T02:50:08.346Z,41.80
2022-12-04T02:55:20.146Z,45.47
2022-12-04T03:00:22.603Z,58.33
2022-12-04T03:05:50.536Z,48.33
2022-12-04T03:10:57.876Z,54.87
2022-12-04T03:16:19.502Z,50.93
2022-12-04T03:21:26.677Z,49.53
2022-12-04T03:26:35.920Z,52.93
2022-12-04T03:31:50.612Z,50.27
2022-12-04T03:36:57.254Z,66.27
2022-12-04T03:42:27.452Z,54.47
2022-12-04T03:48:15.836Z,52.43
2022-12-04T03:53:41.759Z,49.90
2022-12-04T03:58:48.036Z,51.83
2022-12-04T04:03:53.947Z,52.83
2022-12-04T04:08:58.464Z,42.90
2022-12-04T04:14:24.725Z,52.70
2022-12-04T04:19:49.460Z,46.37
2022-12-04T04:25:02.202Z,58.33
2022-12-04T04:30:06.471Z,50.73
2022-12-04T04:35:35.948Z,53.20
2022-12-04T04:40:50.079Z,51.97
2022-12-04T04:46:15.808Z,51.40
2022-12-04T04:51:18.390Z,48.13
2022-12-04T04:56:21.235Z,51.40
2022-12-04T05:01:26.745Z,54.43
2022-12-04T05:06:28.659Z,45.33
2022-12-04T05:11:30.509Z,57.10
2022-12-04T05:16:32.696Z,47.63
2022-12-04T05:21:34.779Z,52.57
2022-12-04T05:26:36.772Z,57.20
2022-12-04T05:31:38.719Z,60.93
2022-12-04T05:36:40.600Z,59.47
2022-12-04T05:41:42.417Z,47.20
2022-12-04T05:46:44.172Z,51.50
2022-12-04T05:51:46.240Z,48.10
2022-12-04T05:56:48.567Z,53.13
2022-12-04T06:01:50.365Z,50.07
2022-12-04T06:06:53.765Z,49.97
2022-12-04T06:11:58.203Z,51.70
2022-12-04T06:17:00.112Z,46.87
2022-12-04T06:22:01.843Z,48.87
2022-12-04T06:27:26.877Z,52.60
2022-12-04T06:32:25.446Z,59.03
2022-12-04T06:37:27.419Z,57.40
2022-12-04T06:42:29.388Z,52.97
2022-12-04T06:47:31.125Z,49.83
2022-12-04T06:52:34.180Z,58.90
2022-12-04T06:57:35.909Z,55.93
2022-12-04T07:02:37.814Z,57.03
2022-12-04T07:07:40.033Z,54.07
2022-12-04T07:12:41.796Z,51.00
2022-12-04T07:17:43.707Z,54.03
2022-12-04T07:22:45.685Z,50.77
2022-12-04T07:27:47.747Z,50.07
2022-12-04T07:32:49.527Z,53.23
2022-12-04T07:37:51.255Z,54.37
2022-12-04T07:42:53.160Z,52.77
2022-12-04T07:47:54.915Z,50.63
2022-12-04T07:52:56.854Z,55.53
2022-12-04T07:57:59.726Z,51.37
2022-12-04T08:03:01.647Z,47.23
2022-12-04T08:08:03.888Z,57.70
2022-12-04T08:13:05.686Z,49.27
2022-12-04T08:18:07.637Z,59.33
2022-12-04T08:23:09.638Z,47.07
2022-12-04T08:28:11.875Z,55.70
2022-12-04T08:33:13.684Z,61.37
2022-12-04T08:38:15.460Z,52.37
2022-12-04T08:43:17.367Z,49.87
2022-12-04T08:48:19.286Z,50.10
2022-12-04T08:53:21.989Z,50.00
2022-12-04T08:58:23.943Z,49.67
2022-12-04T09:03:30.700Z,44.67
2022-12-04T09:08:33.896Z,49.60
2022-12-04T09:13:35.747Z,42.07
2022-12-04T09:19:12.251Z,53.57
2022-12-04T09:24:18.001Z,46.07
2022-12-04T09:29:21.300Z,47.47
2022-12-04T09:34:28.466Z,51.20
2022-12-04T09:39:40.239Z,45.27
2022-12-04T09:45:20.247Z,44.80
2022-12-04T09:51:13.853Z,39.30
2022-12-04T09:56:32.509Z,41.00
2022-12-04T10:02:23.443Z,40.87
2022-12-04T10:08:20.113Z,45.07
2022-12-04T10:13:53.174Z,40.20
2022-12-04T10:20:11.207Z,37.70
2022-12-04T10:25:40.344Z,39.00
2022-12-04T10:30:43.549Z,29.10
2022-12-04T10:35:49.090Z,31.73
2022-12-04T10:40:59.832Z,25.17
2022-12-04T10:46:02.189Z,35.10
2022-12-04T10:51:04.372Z,31.63
2022-12-04T10:56:15.186Z,24.93
2022-12-04T11:01:17.455Z,24.40
2022-12-04T11:06:25.200Z,28.07
2022-12-04T11:11:33.279Z,26.20
2022-12-04T11:16:38.850Z,26.57
2022-12-04T11:21:43.511Z,32.07
2022-12-04T11:26:47.255Z,29.00
2022-12-04T11:31:54.838Z,31.93
2022-12-04T11:37:00.400Z,35.97
2022-12-04T11:42:19.877Z,27.20
2022-12-04T11:47:23.899Z,31.27
2022-12-04T11:53:02.495Z,31.63
2022-12-04T11:58:39.007Z,28.23
2022-12-04T12:04:18.347Z,29.97
2022-12-04T12:09:28.443Z,25.00
2022-12-04T12:14:49.187Z,24.77
2022-12-04T12:20:21.902Z,26.10
2022-12-04T12:25:35.466Z,27.73
2022-12-04T12:31:18.308Z,23.37
2022-12-04T12:36:24.365Z,23.67
2022-12-04T12:41:35.984Z,21.57
2022-12-04T12:46:48.854Z,19.80
2022-12-04T12:52:12.721Z,20.07
2022-12-04T12:57:32.787Z,20.47
2022-12-04T13:02:42.271Z,25.17
2022-12-04T13:07:58.989Z,23.40
2022-12-04T13:13:05.862Z,27.67
2022-12-04T13:18:11.761Z,26.30
2022-12-04T13:23:31.867Z,26.33
2022-12-04T13:29:02.403Z,30.57
2022-12-04T13:34:31.396Z,32.60
2022-12-04T13:40:14.653Z,31.37
2022-12-04T13:45:28.604Z,32.90
2022-12-04T13:50:35.919Z,34.70
2022-12-04T13:55:39.987Z,37.00
2022-12-04T14:00:43.662Z,37.70
2022-12-04T14:05:45.596Z,29.73
2022-12-04T14:11:18.534Z,24.80
2022-12-04T14:16:29.470Z,28.83
2022-12-04T14:21:46.811Z,29.07
2022-12-04T14:32:18.755Z,28.80
2022-12-04T14:37:31.637Z,24.50
2022-12-04T14:42:40.332Z,30.10
2022-12-04T14:48:06.866Z,30.67
2022-12-04T14:53:29.930Z,29.30
2022-12-04T14:58:36.258Z,23.40
2022-12-04T15:03:44.701Z,22.93
2022-12-04T15:08:52.161Z,28.87
2022-12-04T15:13:54.094Z,27.37
2022-12-04T15:19:00.557Z,33.40
2022-12-04T15:24:08.404Z,33.93
2022-12-04T15:29:18.789Z,32.00
2022-12-04T15:34:24.757Z,27.03
2022-12-04T15:39:28.648Z,30.07
2022-12-04T15:44:35.585Z,34.43
2022-12-04T15:49:37.335Z,31.10
2022-12-04T15:54:44.183Z,35.23
2022-12-04T15:59:51.145Z,26.80
2022-12-04T16:04:53.129Z,32.23
2022-12-04T16:10:03.284Z,25.77
2022-12-04T16:15:06.051Z,28.53
2022-12-04T16:20:08.212Z,31.40
2022-12-04T16:25:11.943Z,30.20
2022-12-04T16:30:14.328Z,24.03
2022-12-04T16:35:17.150Z,30.80
2022-12-04T16:40:19.108Z,27.10
2022-12-04T16:45:20.960Z,30.50
2022-12-04T16:50:23.771Z,27.73
2022-12-04T16:55:33.317Z,29.50
2022-12-04T17:00:36.478Z,27.77
2022-12-04T17:05:38.478Z,32.30
2022-12-04T17:10:40.398Z,32.17
2022-12-04T17:15:42.294Z,33.53
2022-12-04T17:20:44.677Z,30.53
2022-12-04T17:25:46.630Z,31.67
2022-12-04T17:30:48.627Z,32.87
2022-12-04T17:35:50.813Z,35.50
2022-12-04T17:41:03.380Z,33.97
2022-12-04T17:46:12.830Z,34.00
2022-12-04T17:51:17.988Z,34.97
2022-12-04T17:56:21.945Z,36.03
2022-12-04T18:01:26.256Z,34.53
2022-12-04T18:06:31.127Z,40.03
2022-12-04T18:11:34.926Z,35.90
2022-12-04T18:16:39.275Z,36.13
2022-12-04T18:27:46.899Z,39.10
2022-12-04T18:32:48.878Z,42.23
2022-12-04T18:37:50.627Z,43.30
2022-12-04T18:42:52.427Z,44.63
2022-12-04T18:47:54.186Z,42.30
2022-12-04T18:53:00.090Z,42.93
2022-12-04T18:58:03.531Z,39.40
2022-12-04T19:03:06.091Z,40.53
2022-12-04T19:08:09.170Z,41.93
2022-12-04T19:13:11.439Z,41.10
2022-12-04T19:18:14.520Z,42.73
2022-12-04T19:23:16.284Z,41.57
2022-12-04T19:28:18.040Z,42.70
2022-12-04T19:33:20.759Z,43.50
2022-12-04T19:38:22.744Z,44.33
2022-12-04T19:43:24.534Z,40.03
2022-12-04T19:48:27.286Z,39.37
2022-12-04T19:53:29.297Z,42.47
2022-12-04T19:58:31.860Z,35.03
2022-12-04T20:03:34.817Z,35.70
2022-12-04T20:08:37.749Z,38.60
2022-12-04T20:13:39.984Z,43.43
2022-12-04T20:18:42.593Z,42.50
2022-12-04T20:23:49.273Z,41.07
2022-12-04T20:28:52.176Z,42.47
2022-12-04T20:33:55.653Z,52.30
2022-12-04T20:38:59.207Z,36.53
2022-12-04T20:44:03.930Z,41.17
2022-12-04T20:49:08.507Z,43.77
2022-12-04T20:54:18.124Z,45.70
2022-12-04T20:59:21.760Z,51.00
2022-12-04T21:04:23.977Z,50.43
2022-12-04T21:09:26.619Z,50.33
2022-12-04T21:14:49.074Z,48.87
2022-12-04T21:19:50.998Z,49.47
2022-12-04T21:24:52.903Z,52.33
2022-12-04T21:29:56.168Z,49.03
2022-12-04T21:34:58.423Z,55.77
2022-12-04T21:40:00.623Z,57.80
2022-12-04T21:45:06.242Z,47.13
2022-12-04T21:50:08.542Z,51.93
2022-12-04T21:55:10.355Z,42.73
2022-12-04T22:00:13.121Z,51.80
2022-12-04T22:05:14.891Z,49.43
2022-12-04T22:10:16.806Z,44.30
2022-12-04T22:15:19.199Z,48.50
2022-12-04T22:20:23.491Z,50.70
2022-12-04T22:25:25.286Z,46.00
2022-12-04T22:30:27.536Z,54.73
2022-12-04T22:35:29.471Z,48.93
2022-12-04T22:40:31.450Z,43.50
2022-12-04T22:45:33.340Z,41.67
2022-12-04T22:50:35.114Z,44.83
2022-12-04T22:55:37.035Z,44.33
2022-12-04T23:00:39.373Z,49.97
2022-12-04T23:05:41.404Z,51.33
2022-12-04T23:10:43.194Z,47.07
2022-12-04T23:15:45.057Z,40.23
2022-12-04T23:20:47.019Z,52.83
2022-12-04T23:25:48.982Z,50.70
2022-12-04T23:30:50.766Z,56.70
2022-12-04T23:35:54.496Z,54.43
2022-12-04T23:41:21.879Z,47.13
2022-12-04T23:46:33.253Z,47.87
2022-12-04T23:51:35.066Z,54.77
2022-12-04T23:56:36.923Z,50.57
